createdAt,value
2023-03-06T00:00:51.060Z,6.08
2023-03-06T00:03:19.158Z,6.10
2023-03-06T00:05:46.895Z,6.09
2023-03-06T00:08:14.496Z,6.07
2023-03-06T00:10:42.145Z,6.11
2023-03-06T00:13:12.620Z,6.03
2023-03-06T00:15:40.231Z,6.04
2023-03-06T00:18:09.357Z,6.05
2023-03-06T00:20:37.659Z,6.05
2023-03-06T00:23:05.169Z,6.04
2023-03-06T00:25:36.619Z,6.10
2023-03-06T00:28:04.102Z,6.08
2023-03-06T00:30:32.260Z,6.09
2023-03-06T00:32:59.732Z,5.97
2023-03-06T00:35:28.800Z,5.95
2023-03-06T00:37:57.714Z,5.97
2023-03-06T00:40:25.231Z,5.97
2023-03-06T00:42:52.681Z,5.97
2023-03-06T00:45:20.195Z,6.02
2023-03-06T00:47:47.688Z,6.02
2023-03-06T00:50:15.209Z,6.01
2023-03-06T00:52:44.086Z,6.03
2023-03-06T00:55:11.846Z,5.88
2023-03-06T00:57:39.319Z,5.93
2023-03-06T01:00:08.802Z,5.97
2023-03-06T01:02:36.322Z,5.86
2023-03-06T01:05:03.892Z,5.93
2023-03-06T01:07:33.879Z,5.95
2023-03-06T01:10:02.813Z,5.83
2023-03-06T01:12:30.308Z,5.95
2023-03-06T01:14:57.810Z,5.95
2023-03-06T01:17:25.342Z,5.95
2023-03-06T01:19:52.830Z,6.00
2023-03-06T01:22:20.343Z,5.96
2023-03-06T01:24:47.845Z,5.69
2023-03-06T01:27:16.651Z,5.81
2023-03-06T01:29:44.091Z,5.84
2023-03-06T01:32:11.696Z,5.93
2023-03-06T01:34:39.223Z,6.01
2023-03-06T01:37:06.750Z,5.86
2023-03-06T01:39:34.200Z,5.47
2023-03-06T01:42:01.653Z,5.66
2023-03-06T01:44:30.548Z,5.76
2023-03-06T01:46:57.990Z,5.80
2023-03-06T01:49:29.542Z,5.87
2023-03-06T01:52:02.480Z,5.84
2023-03-06T01:54:33.785Z,5.59
2023-03-06T01:57:05.099Z,5.75
2023-03-06T01:59:36.597Z,5.86
2023-03-06T02:02:06.865Z,5.84
2023-03-06T02:04:35.164Z,5.76
2023-03-06T02:07:05.098Z,5.81
2023-03-06T02:09:34.599Z,5.68
2023-03-06T02:12:02.615Z,5.68
2023-03-06T02:14:31.025Z,5.67
2023-03-06T02:16:59.925Z,5.71
2023-03-06T02:19:37.758Z,5.69
2023-03-06T02:22:05.325Z,5.62
2023-03-06T02:24:41.141Z,5.68
2023-03-06T02:27:14.119Z,5.73
2023-03-06T02:29:41.998Z,5.62
2023-03-06T02:32:10.435Z,5.63
2023-03-06T02:34:52.110Z,5.46
2023-03-06T02:37:20.307Z,5.60
2023-03-06T02:39:50.723Z,5.68
2023-03-06T02:42:21.620Z,5.70
2023-03-06T02:44:49.968Z,5.68
2023-03-06T02:47:17.487Z,5.69
2023-03-06T02:49:44.917Z,5.51
2023-03-06T02:52:12.428Z,5.59
2023-03-06T02:54:39.978Z,5.65
2023-03-06T02:57:07.521Z,5.51
2023-03-06T02:59:36.334Z,5.56
2023-03-06T03:02:03.788Z,5.69
2023-03-06T03:04:31.382Z,5.68
2023-03-06T03:06:58.871Z,5.52
2023-03-06T03:09:26.415Z,5.60
2023-03-06T03:11:53.930Z,5.73
2023-03-06T03:14:21.446Z,5.65
2023-03-06T03:16:50.243Z,5.47
2023-03-06T03:19:17.790Z,5.55
2023-03-06T03:21:45.260Z,5.43
2023-03-06T03:24:12.784Z,5.50
2023-03-06T03:26:40.344Z,5.58
2023-03-06T03:29:08.002Z,5.45
2023-03-06T03:31:35.493Z,5.49
2023-03-06T03:34:04.704Z,5.55
2023-03-06T03:36:32.198Z,5.59
2023-03-06T03:39:00.148Z,5.60
2023-03-06T03:41:27.645Z,5.58
2023-03-06T03:43:55.171Z,5.62
2023-03-06T03:46:22.795Z,5.53
2023-03-06T03:48:50.297Z,5.41
2023-03-06T03:51:19.195Z,5.38
2023-03-06T03:53:46.834Z,5.47
2023-03-06T03:56:14.608Z,5.47
2023-03-06T03:58:42.170Z,5.22
2023-03-06T04:01:09.673Z,4.97
2023-03-06T04:03:37.150Z,5.27
2023-03-06T04:06:04.877Z,5.36
2023-03-06T04:08:33.903Z,5.41
2023-03-06T04:11:01.463Z,5.25
2023-03-06T04:13:28.964Z,5.25
2023-03-06T04:15:57.165Z,5.07
2023-03-06T04:18:24.877Z,5.18
2023-03-06T04:20:52.386Z,5.30
2023-03-06T04:23:20.408Z,5.04
2023-03-06T04:25:49.212Z,5.08
2023-03-06T04:28:17.621Z,5.15
2023-03-06T04:30:45.076Z,5.31
2023-03-06T04:33:12.626Z,4.93
2023-03-06T04:35:40.177Z,4.94
2023-03-06T04:38:07.656Z,5.09
2023-03-06T04:40:36.787Z,5.23
2023-03-06T04:43:06.186Z,5.13
2023-03-06T04:45:35.266Z,5.22
2023-03-06T04:48:03.206Z,5.31
2023-03-06T04:50:32.353Z,5.27
2023-03-06T04:53:01.230Z,5.31
2023-03-06T04:55:29.265Z,5.31
2023-03-06T04:57:58.798Z,5.36
2023-03-06T05:00:31.246Z,5.31
2023-03-06T05:03:00.239Z,5.25
2023-03-06T05:05:28.688Z,5.28
2023-03-06T05:07:56.571Z,5.36
2023-03-06T05:10:24.107Z,5.25
2023-03-06T05:12:51.668Z,5.29
2023-03-06T05:15:19.423Z,5.20
2023-03-06T05:17:48.411Z,5.34
2023-03-06T05:20:16.793Z,5.16
2023-03-06T05:22:44.351Z,5.26
2023-03-06T05:25:11.874Z,5.05
2023-03-06T05:27:39.557Z,4.90
2023-03-06T05:30:08.348Z,5.09
2023-03-06T05:32:36.122Z,5.25
2023-03-06T05:35:05.962Z,5.31
2023-03-06T05:37:34.997Z,5.12
2023-03-06T05:40:06.543Z,5.22
2023-03-06T05:42:33.997Z,5.30
2023-03-06T05:45:04.406Z,5.35
2023-03-06T05:47:32.423Z,5.25
2023-03-06T05:50:00.056Z,5.29
2023-03-06T05:52:28.906Z,5.25
2023-03-06T05:54:56.360Z,5.30
2023-03-06T05:57:25.064Z,5.25
2023-03-06T05:59:52.955Z,5.14
2023-03-06T06:02:20.866Z,5.24
2023-03-06T06:04:48.613Z,5.29
2023-03-06T06:07:17.390Z,5.24
2023-03-06T06:09:46.268Z,5.21
2023-03-06T06:12:14.713Z,5.20
2023-03-06T06:14:42.214Z,5.24
2023-03-06T06:17:10.318Z,5.25
2023-03-06T06:19:37.799Z,5.13
2023-03-06T06:22:05.742Z,5.10
2023-03-06T06:24:33.601Z,5.16
2023-03-06T06:27:03.957Z,5.14
2023-03-06T06:29:32.595Z,5.05
2023-03-06T06:32:00.629Z,5.22
2023-03-06T06:34:29.023Z,5.26
2023-03-06T06:36:56.474Z,5.33
2023-03-06T06:39:24.522Z,5.33
2023-03-06T06:42:09.527Z,5.32
2023-03-06T06:44:41.530Z,5.35
2023-03-06T06:47:22.351Z,5.33
2023-03-06T06:49:51.256Z,5.32
2023-03-06T06:52:19.453Z,5.36
2023-03-06T06:54:46.964Z,5.34
2023-03-06T06:57:14.660Z,5.22
2023-03-06T06:59:46.105Z,5.35
2023-03-06T07:02:14.596Z,5.35
2023-03-06T07:05:00.278Z,5.45
2023-03-06T07:07:31.830Z,5.47
2023-03-06T07:09:59.363Z,5.30
2023-03-06T07:12:26.874Z,5.16
2023-03-06T07:14:57.710Z,5.28
2023-03-06T07:17:25.186Z,5.41
2023-03-06T07:19:52.666Z,5.49
2023-03-06T07:22:24.284Z,5.38
2023-03-06T07:24:56.877Z,5.39
2023-03-06T07:27:26.058Z,5.22
2023-03-06T07:29:57.027Z,5.12
2023-03-06T07:32:30.704Z,5.24
2023-03-06T07:35:13.721Z,5.46
2023-03-06T07:37:48.561Z,5.49
2023-03-06T07:40:16.118Z,5.47
2023-03-06T07:42:43.825Z,5.20
2023-03-06T07:45:13.443Z,5.28
2023-03-06T07:47:41.399Z,5.19
2023-03-06T07:50:09.809Z,5.37
2023-03-06T07:52:37.510Z,5.25
2023-03-06T07:55:05.656Z,5.16
2023-03-06T07:57:33.235Z,5.13
2023-03-06T08:00:00.781Z,5.40
2023-03-06T08:02:29.616Z,5.35
2023-03-06T08:04:57.861Z,5.19
2023-03-06T08:07:25.629Z,5.02
2023-03-06T08:09:53.129Z,5.26
2023-03-06T08:12:20.600Z,5.18
2023-03-06T08:14:48.089Z,5.31
2023-03-06T08:17:15.737Z,5.22
2023-03-06T08:19:44.546Z,5.46
2023-03-06T08:22:13.855Z,5.53
2023-03-06T08:24:41.353Z,5.51
2023-03-06T08:27:08.779Z,5.24
2023-03-06T08:29:36.240Z,5.30
2023-03-06T08:32:03.734Z,5.13
2023-03-06T08:34:31.713Z,5.43
2023-03-06T08:37:00.555Z,5.32
2023-03-06T08:39:28.141Z,5.45
2023-03-06T08:41:55.615Z,5.59
2023-03-06T08:44:23.188Z,5.48
2023-03-06T08:46:50.658Z,5.23
2023-03-06T08:49:18.139Z,5.33
2023-03-06T08:51:45.562Z,5.37
2023-03-06T08:54:14.667Z,5.54
2023-03-06T08:56:42.209Z,5.79
2023-03-06T08:59:11.948Z,5.67
2023-03-06T09:01:40.196Z,5.92
2023-03-06T09:04:09.771Z,6.02
2023-03-06T09:06:40.511Z,5.99
2023-03-06T09:09:08.859Z,5.84
2023-03-06T09:11:37.831Z,5.94
2023-03-06T09:14:05.802Z,6.09
2023-03-06T09:16:33.392Z,6.07
2023-03-06T09:19:00.885Z,5.31
2023-03-06T09:21:28.744Z,5.54
2023-03-06T09:23:56.390Z,5.60
2023-03-06T09:26:32.840Z,5.76
2023-03-06T09:29:08.906Z,5.79
2023-03-06T09:31:36.334Z,5.77
2023-03-06T09:34:03.877Z,5.86
2023-03-06T09:36:31.338Z,5.62
2023-03-06T09:38:58.853Z,5.59
2023-03-06T09:41:30.545Z,5.80
2023-03-06T09:44:04.931Z,5.96
2023-03-06T09:46:47.085Z,5.84
2023-03-06T09:49:38.010Z,5.71
2023-03-06T09:52:18.684Z,5.47
2023-03-06T09:54:47.895Z,5.59
2023-03-06T09:57:22.670Z,5.73
2023-03-06T09:59:53.822Z,5.81
2023-03-06T10:02:29.879Z,5.91
2023-03-06T10:05:01.676Z,5.79
2023-03-06T10:07:39.916Z,5.71
2023-03-06T10:10:12.699Z,5.60
2023-03-06T10:12:45.125Z,5.48
2023-03-06T10:15:17.180Z,5.51
2023-03-06T10:17:46.309Z,5.54
2023-03-06T10:20:22.360Z,5.43
2023-03-06T10:23:33.248Z,5.38
2023-03-06T10:26:03.271Z,5.56
2023-03-06T10:28:35.608Z,5.58
2023-03-06T10:31:10.578Z,5.37
2023-03-06T10:33:55.504Z,5.47
2023-03-06T10:36:26.916Z,5.60
2023-03-06T10:38:56.588Z,5.67
2023-03-06T10:41:28.377Z,5.39
2023-03-06T10:44:19.499Z,5.68
2023-03-06T10:46:48.893Z,5.74
2023-03-06T10:49:33.170Z,5.78
2023-03-06T10:52:03.528Z,5.91
2023-03-06T10:54:33.302Z,6.01
2023-03-06T10:57:19.750Z,6.27
2023-03-06T10:59:55.667Z,6.08
2023-03-06T11:02:28.933Z,6.06
2023-03-06T11:05:00.185Z,6.21
2023-03-06T11:07:30.067Z,6.59
2023-03-06T11:10:12.903Z,6.70
2023-03-06T11:12:42.428Z,6.65
2023-03-06T11:15:18.343Z,6.75
2023-03-06T11:17:55.174Z,6.70
2023-03-06T11:20:26.361Z,6.81
2023-03-06T11:22:57.920Z,6.52
2023-03-06T11:25:31.300Z,6.23
2023-03-06T11:28:03.784Z,6.48
2023-03-06T11:30:38.910Z,6.67
2023-03-06T11:33:18.156Z,6.77
2023-03-06T11:35:57.855Z,6.91
2023-03-06T11:38:34.840Z,6.72
2023-03-06T11:41:06.742Z,6.91
2023-03-06T11:43:42.163Z,6.98
2023-03-06T11:46:14.999Z,7.09
2023-03-06T11:48:47.552Z,7.02
2023-03-06T11:51:20.316Z,6.84
2023-03-06T11:53:50.821Z,7.01
2023-03-06T11:56:32.038Z,7.20
2023-03-06T11:59:14.192Z,7.31
2023-03-06T12:01:47.679Z,7.59
2023-03-06T12:04:38.822Z,7.83
2023-03-06T12:07:20.379Z,7.76
2023-03-06T12:09:55.345Z,7.99
2023-03-06T12:12:38.586Z,8.21
2023-03-06T12:15:19.991Z,8.19
2023-03-06T12:17:57.400Z,8.31
2023-03-06T12:20:40.919Z,8.32
2023-03-06T12:23:21.958Z,8.20
2023-03-06T12:25:54.868Z,8.27
2023-03-06T12:28:46.296Z,7.86
2023-03-06T12:31:24.951Z,7.79
2023-03-06T12:34:02.528Z,7.75
2023-03-06T12:36:39.766Z,7.64
2023-03-06T12:39:11.310Z,7.73
2023-03-06T12:41:46.334Z,7.87
2023-03-06T12:44:28.163Z,7.93
2023-03-06T12:46:59.399Z,7.99
2023-03-06T12:49:32.387Z,7.99
2023-03-06T12:52:02.114Z,7.96
2023-03-06T12:54:34.396Z,8.02
2023-03-06T12:57:02.060Z,8.11
2023-03-06T12:59:44.155Z,8.14
2023-03-06T13:02:30.037Z,8.00
2023-03-06T13:05:11.713Z,8.30
2023-03-06T13:07:53.532Z,8.34
2023-03-06T13:10:27.803Z,8.51
2023-03-06T13:12:57.275Z,8.45
2023-03-06T13:15:42.516Z,8.74
2023-03-06T13:18:47.502Z,8.79
2023-03-06T13:21:52.754Z,8.56
2023-03-06T13:24:23.013Z,8.34
2023-03-06T13:27:02.978Z,8.44
2023-03-06T13:29:54.280Z,8.50
2023-03-06T13:32:31.486Z,8.15
2023-03-06T13:34:58.996Z,8.22
2023-03-06T13:37:53.577Z,7.89
2023-03-06T13:40:33.187Z,7.93
2023-03-06T13:43:19.097Z,8.09
2023-03-06T13:45:49.003Z,8.13
2023-03-06T13:48:43.782Z,8.01
2023-03-06T13:51:23.001Z,8.07
2023-03-06T13:54:17.780Z,7.94
2023-03-06T13:57:05.850Z,7.91
2023-03-06T14:00:08.287Z,8.08
2023-03-06T14:02:54.486Z,7.86
2023-03-06T14:05:22.674Z,7.79
2023-03-06T14:08:03.309Z,8.09
2023-03-06T14:10:34.729Z,8.23
2023-03-06T14:13:04.869Z,7.89
2023-03-06T14:15:45.773Z,7.96
2023-03-06T14:18:20.474Z,7.92
2023-03-06T14:20:52.844Z,8.17
2023-03-06T14:23:28.572Z,8.04
2023-03-06T14:26:02.124Z,8.07
2023-03-06T14:28:31.376Z,8.19
2023-03-06T14:31:01.960Z,7.76
2023-03-06T14:33:37.727Z,7.98
2023-03-06T14:36:10.482Z,8.16
2023-03-06T14:38:45.032Z,8.14
2023-03-06T14:41:14.220Z,8.05
2023-03-06T14:43:41.755Z,7.97
2023-03-06T14:46:20.633Z,8.04
2023-03-06T14:48:50.073Z,7.71
2023-03-06T14:51:20.906Z,7.77
2023-03-06T14:53:50.266Z,7.77
2023-03-06T14:56:19.985Z,7.96
2023-03-06T14:58:53.406Z,8.02
2023-03-06T15:01:30.011Z,8.14
2023-03-06T15:03:59.920Z,8.30
2023-03-06T15:06:33.155Z,8.45
2023-03-06T15:09:05.848Z,8.58
2023-03-06T15:11:52.735Z,8.68
2023-03-06T15:14:22.333Z,8.67
2023-03-06T15:16:51.161Z,8.65
2023-03-06T15:19:20.311Z,8.61
2023-03-06T15:21:49.572Z,8.65
2023-03-06T15:24:35.568Z,8.62
2023-03-06T15:27:04.867Z,8.57
2023-03-06T15:29:32.885Z,8.43
2023-03-06T15:32:32.189Z,8.46
2023-03-06T15:35:29.379Z,8.43
2023-03-06T15:37:57.616Z,8.34
2023-03-06T15:40:27.304Z,8.27
2023-03-06T15:42:55.104Z,8.27
2023-03-06T15:45:24.459Z,8.14
2023-03-06T15:47:55.583Z,8.04
2023-03-06T15:50:24.483Z,8.01
2023-03-06T15:52:52.538Z,7.82
2023-03-06T15:55:23.342Z,7.83
2023-03-06T15:57:52.828Z,8.01
2023-03-06T16:00:28.307Z,7.66
2023-03-06T16:02:58.693Z,7.78
2023-03-06T16:05:27.892Z,7.84
2023-03-06T16:07:55.723Z,7.71
2023-03-06T16:10:25.339Z,7.76
2023-03-06T16:12:56.534Z,7.74
2023-03-06T16:15:28.732Z,7.84
2023-03-06T16:17:57.887Z,7.79
2023-03-06T16:20:27.329Z,7.71
2023-03-06T16:22:55.183Z,7.73
2023-03-06T16:25:23.787Z,7.71
2023-03-06T16:27:55.565Z,7.68
2023-03-06T16:30:24.221Z,7.67
2023-03-06T16:32:51.985Z,7.56
2023-03-06T16:35:20.902Z,7.64
2023-03-06T16:37:48.500Z,7.60
2023-03-06T16:40:22.027Z,7.61
2023-03-06T16:42:49.920Z,7.63
2023-03-06T16:45:19.300Z,7.14
2023-03-06T16:47:48.000Z,7.26
2023-03-06T16:50:26.460Z,7.45
2023-03-06T16:52:55.526Z,7.49
2023-03-06T16:55:23.865Z,7.47
2023-03-06T16:57:51.777Z,7.21
2023-03-06T17:00:21.189Z,7.13
2023-03-06T17:02:49.465Z,7.22
2023-03-06T17:05:17.199Z,7.20
2023-03-06T17:07:46.084Z,7.22
2023-03-06T17:10:16.593Z,7.17
2023-03-06T17:12:44.682Z,7.18
2023-03-06T17:15:12.937Z,7.14
2023-03-06T17:17:40.468Z,6.90
2023-03-06T17:20:09.364Z,6.88
2023-03-06T17:22:38.596Z,7.00
2023-03-06T17:25:09.349Z,7.11
2023-03-06T17:27:37.470Z,7.16
2023-03-06T17:30:06.337Z,7.19
2023-03-06T17:32:34.007Z,7.21
2023-03-06T17:35:01.512Z,7.13
2023-03-06T17:37:29.309Z,7.06
2023-03-06T17:39:56.784Z,7.07
2023-03-06T17:42:25.543Z,7.10
2023-03-06T17:44:53.269Z,7.06
2023-03-06T17:47:20.747Z,7.01
2023-03-06T17:49:48.224Z,6.97
2023-03-06T17:52:15.720Z,6.96
2023-03-06T17:54:43.239Z,7.00
2023-03-06T17:57:10.717Z,7.01
2023-03-06T17:59:39.559Z,6.99
2023-03-06T18:02:07.543Z,7.04
2023-03-06T18:04:35.078Z,6.95
2023-03-06T18:07:02.604Z,6.74
2023-03-06T18:09:30.256Z,6.81
2023-03-06T18:11:57.731Z,6.86
2023-03-06T18:14:25.263Z,6.61
2023-03-06T18:16:54.088Z,6.73
2023-03-06T18:19:21.682Z,6.74
2023-03-06T18:21:49.139Z,6.81
2023-03-06T18:24:16.645Z,6.83
2023-03-06T18:26:44.169Z,6.86
2023-03-06T18:29:11.647Z,6.78
2023-03-06T18:31:40.753Z,6.75
2023-03-06T18:34:11.873Z,6.62
2023-03-06T18:36:42.241Z,6.56
2023-03-06T18:39:12.647Z,6.56
2023-03-06T18:41:40.306Z,6.52
2023-03-06T18:44:08.185Z,6.44
2023-03-06T18:46:38.318Z,6.38
2023-03-06T18:49:06.515Z,6.22
2023-03-06T18:51:35.915Z,6.32
2023-03-06T18:54:05.770Z,6.47
2023-03-06T18:56:33.998Z,6.35
2023-03-06T18:59:03.348Z,6.38
2023-03-06T19:01:31.377Z,6.18
2023-03-06T19:04:01.046Z,5.99
2023-03-06T19:06:28.983Z,6.10
2023-03-06T19:08:59.372Z,6.25
2023-03-06T19:11:27.757Z,6.25
2023-03-06T19:13:55.481Z,6.22
2023-03-06T19:16:25.253Z,6.15
2023-03-06T19:18:55.055Z,6.18
2023-03-06T19:21:24.001Z,6.19
2023-03-06T19:23:52.009Z,6.23
2023-03-06T19:26:21.373Z,6.19
2023-03-06T19:28:49.593Z,5.90
2023-03-06T19:31:20.028Z,5.96
2023-03-06T19:33:48.774Z,6.04
2023-03-06T19:36:18.315Z,6.07
2023-03-06T19:38:50.206Z,5.97
2023-03-06T19:41:17.768Z,5.92
2023-03-06T19:43:52.034Z,5.90
2023-03-06T19:46:20.129Z,5.85
2023-03-06T19:48:48.255Z,5.58
2023-03-06T19:51:15.834Z,5.59
2023-03-06T19:53:43.289Z,5.56
2023-03-06T19:56:14.717Z,5.71
2023-03-06T19:58:42.518Z,5.88
2023-03-06T20:01:13.777Z,5.91
2023-03-06T20:03:41.788Z,5.86
2023-03-06T20:06:13.778Z,5.86
2023-03-06T20:08:41.275Z,5.76
2023-03-06T20:11:16.677Z,5.81
2023-03-06T20:13:47.581Z,5.99
2023-03-06T20:16:17.264Z,5.90
2023-03-06T20:18:45.366Z,5.77
2023-03-06T20:21:13.038Z,5.71
2023-03-06T20:23:40.774Z,5.78
2023-03-06T20:26:11.786Z,5.80
2023-03-06T20:28:39.980Z,5.82
2023-03-06T20:31:08.907Z,5.82
2023-03-06T20:33:37.822Z,5.76
2023-03-06T20:36:06.195Z,5.85
2023-03-06T20:38:33.680Z,5.63
2023-03-06T20:41:01.181Z,5.67
2023-03-06T20:43:28.624Z,5.61
2023-03-06T20:45:57.837Z,5.23
2023-03-06T20:48:25.477Z,5.34
2023-03-06T20:51:01.928Z,5.27
2023-03-06T20:53:29.475Z,5.29
2023-03-06T20:55:57.285Z,5.35
2023-03-06T20:58:28.327Z,5.33
2023-03-06T21:00:55.787Z,5.38
2023-03-06T21:03:24.026Z,5.41
2023-03-06T21:05:51.541Z,5.31
2023-03-06T21:08:20.358Z,5.39
2023-03-06T21:10:48.033Z,5.23
2023-03-06T21:13:16.107Z,5.23
2023-03-06T21:15:45.525Z,5.15
2023-03-06T21:18:13.440Z,5.09
2023-03-06T21:20:42.317Z,4.99
2023-03-06T21:23:10.039Z,5.08
2023-03-06T21:25:38.872Z,5.09
2023-03-06T21:28:06.371Z,4.96
2023-03-06T21:30:35.176Z,5.03
2023-03-06T21:33:03.772Z,4.99
2023-03-06T21:35:32.404Z,5.11
2023-03-06T21:37:59.891Z,5.05
2023-03-06T21:40:28.154Z,4.93
2023-03-06T21:42:56.978Z,4.82
2023-03-06T21:45:26.433Z,4.66
2023-03-06T21:47:55.059Z,4.71
2023-03-06T21:50:23.581Z,4.62
2023-03-06T21:52:51.221Z,4.70
2023-03-06T21:55:19.049Z,4.65
2023-03-06T21:57:51.224Z,4.66
2023-03-06T22:00:23.038Z,4.66
2023-03-06T22:02:51.027Z,4.58
2023-03-06T22:05:18.558Z,4.50
2023-03-06T22:07:46.205Z,4.56
2023-03-06T22:10:14.202Z,4.63
2023-03-06T22:12:41.676Z,4.63
2023-03-06T22:15:10.499Z,4.74
2023-03-06T22:17:39.689Z,4.70
2023-03-06T22:20:07.876Z,4.76
2023-03-06T22:22:35.303Z,4.77
2023-03-06T22:25:03.150Z,4.65
2023-03-06T22:27:30.741Z,4.44
2023-03-06T22:29:58.219Z,4.50
2023-03-06T22:32:25.792Z,4.28
2023-03-06T22:34:54.691Z,4.30
2023-03-06T22:37:22.140Z,4.32
2023-03-06T22:39:49.586Z,4.28
2023-03-06T22:42:17.137Z,4.14
2023-03-06T22:44:44.854Z,4.16
2023-03-06T22:47:12.378Z,4.04
2023-03-06T22:49:40.104Z,3.99
2023-03-06T22:52:09.088Z,3.92
2023-03-06T22:54:36.880Z,4.01
2023-03-06T22:57:04.448Z,3.95
2023-03-06T22:59:32.030Z,4.04
2023-03-06T23:01:59.465Z,3.97
2023-03-06T23:04:26.987Z,4.02
2023-03-06T23:06:54.484Z,4.06
2023-03-06T23:09:25.054Z,3.93
2023-03-06T23:11:52.788Z,3.79
2023-03-06T23:14:20.700Z,3.95
2023-03-06T23:16:48.210Z,4.00
2023-03-06T23:19:15.807Z,3.99
2023-03-06T23:21:43.345Z,4.11
2023-03-06T23:24:10.839Z,3.97
2023-03-06T23:26:40.584Z,3.97
2023-03-06T23:29:08.092Z,4.11
2023-03-06T23:31:35.562Z,4.18
2023-03-06T23:34:04.018Z,4.19
2023-03-06T23:36:32.038Z,4.22
2023-03-06T23:38:59.525Z,4.18
2023-03-06T23:41:27.214Z,4.14
2023-03-06T23:43:56.022Z,4.20
2023-03-06T23:46:23.820Z,4.20
2023-03-06T23:48:51.633Z,4.34
2023-03-06T23:51:21.336Z,4.40
2023-03-06T23:53:55.084Z,4.40
2023-03-06T23:56:22.919Z,4.45
2023-03-06T23:58:50.410Z,4.45
